createdAt,value
2018-12-30T00:01:16.328Z,4.77
2018-12-30T00:03:46.051Z,5.53
2018-12-30T00:06:15.883Z,5.70
2018-12-30T00:08:45.632Z,5.43
2018-12-30T00:11:15.058Z,4.60
2018-12-30T00:13:45.000Z,5.10
2018-12-30T00:16:14.417Z,4.80
2018-12-30T00:18:44.483Z,5.20
2018-12-30T00:21:14.356Z,4.33
2018-12-30T00:23:43.842Z,4.23
2018-12-30T00:26:13.299Z,5.50
2018-12-30T00:28:42.767Z,3.87
2018-12-30T00:31:12.236Z,4.23
2018-12-30T00:33:41.863Z,5.83
2018-12-30T00:36:11.326Z,5.30
2018-12-30T00:38:40.911Z,3.97
2018-12-30T00:41:10.379Z,5.30
2018-12-30T00:43:39.924Z,4.03
2018-12-30T00:46:09.507Z,4.67
2018-12-30T00:48:39.049Z,4.80
2018-12-30T00:51:08.521Z,4.37
2018-12-30T00:53:37.996Z,3.97
2018-12-30T00:56:07.769Z,5.53
2018-12-30T00:58:37.522Z,5.77
2018-12-30T01:01:07.124Z,5.93
2018-12-30T01:03:36.588Z,4.87
2018-12-30T01:06:06.060Z,3.93
2018-12-30T01:08:35.678Z,4.30
2018-12-30T01:11:05.720Z,4.70
2018-12-30T01:13:35.191Z,5.73
2018-12-30T01:16:04.700Z,4.57
2018-12-30T01:18:34.172Z,4.43
2018-12-30T01:21:03.625Z,4.47
2018-12-30T01:23:33.134Z,4.30
2018-12-30T01:26:02.622Z,4.17
2018-12-30T01:28:32.088Z,5.83
2018-12-30T01:31:01.609Z,3.80
2018-12-30T01:33:31.062Z,4.83
2018-12-30T01:36:00.569Z,4.27
2018-12-30T01:38:30.265Z,5.03
2018-12-30T01:40:59.728Z,4.07
2018-12-30T01:43:29.179Z,4.03
2018-12-30T01:45:58.650Z,4.53
2018-12-30T01:48:28.595Z,5.03
2018-12-30T01:50:58.406Z,5.63
2018-12-30T01:53:29.571Z,4.80
2018-12-30T01:55:59.035Z,5.30
2018-12-30T01:58:28.483Z,4.20
2018-12-30T02:00:58.072Z,4.30
2018-12-30T02:03:27.654Z,4.83
2018-12-30T02:05:57.389Z,4.43
2018-12-30T02:08:26.903Z,4.80
2018-12-30T02:10:56.546Z,4.73
2018-12-30T02:13:26.003Z,5.47
2018-12-30T02:15:55.477Z,4.40
2018-12-30T02:18:24.944Z,3.87
2018-12-30T02:20:54.428Z,4.47
2018-12-30T02:23:24.007Z,5.13
2018-12-30T02:25:53.774Z,5.10
2018-12-30T02:28:23.303Z,3.90
2018-12-30T02:30:52.769Z,3.77
2018-12-30T02:33:26.173Z,4.33
2018-12-30T02:35:55.634Z,4.17
2018-12-30T02:38:25.083Z,3.77
2018-12-30T02:40:54.736Z,4.10
2018-12-30T02:43:24.379Z,3.83
2018-12-30T02:45:53.779Z,4.10
2018-12-30T02:48:23.241Z,4.80
2018-12-30T02:50:52.758Z,3.83
2018-12-30T02:53:22.447Z,3.60
2018-12-30T02:55:51.979Z,4.27
2018-12-30T02:58:21.562Z,3.73
2018-12-30T03:00:51.424Z,3.93
2018-12-30T03:03:20.896Z,3.30
2018-12-30T03:05:50.599Z,3.57
2018-12-30T03:08:20.208Z,3.20
2018-12-30T03:10:49.680Z,3.43
2018-12-30T03:13:19.279Z,2.93
2018-12-30T03:15:48.658Z,3.03
2018-12-30T03:18:18.037Z,2.70
2018-12-30T03:20:47.504Z,4.13
2018-12-30T03:23:17.370Z,3.60
2018-12-30T03:25:49.750Z,2.90
2018-12-30T03:28:19.310Z,3.20
2018-12-30T03:30:48.885Z,3.00
2018-12-30T03:33:18.345Z,3.40
2018-12-30T03:35:47.805Z,3.20
2018-12-30T03:38:17.203Z,3.30
2018-12-30T03:40:46.784Z,3.37
2018-12-30T03:43:16.598Z,3.60
2018-12-30T03:45:46.328Z,3.40
2018-12-30T03:48:16.070Z,3.30
2018-12-30T03:50:45.535Z,3.50
2018-12-30T03:53:15.371Z,3.23
2018-12-30T03:55:44.775Z,3.10
2018-12-30T03:58:14.135Z,3.10
2018-12-30T04:00:43.715Z,3.40
2018-12-30T04:03:13.129Z,3.20
2018-12-30T04:05:42.516Z,4.13
2018-12-30T04:08:11.936Z,3.67
2018-12-30T04:10:41.326Z,3.40
2018-12-30T04:13:10.814Z,3.83
2018-12-30T04:15:40.211Z,3.40
2018-12-30T04:18:09.575Z,3.13
2018-12-30T04:20:39.111Z,4.00
2018-12-30T04:23:08.581Z,3.33
2018-12-30T04:25:38.040Z,3.50
2018-12-30T04:28:07.426Z,2.90
2018-12-30T04:30:36.991Z,3.10
2018-12-30T04:33:06.445Z,2.83
2018-12-30T04:35:35.912Z,3.47
2018-12-30T04:38:05.567Z,2.90
2018-12-30T04:40:34.991Z,3.27
2018-12-30T04:43:04.581Z,3.23
2018-12-30T04:45:34.283Z,4.33
2018-12-30T04:48:05.384Z,3.20
2018-12-30T04:50:34.763Z,3.23
2018-12-30T04:53:04.155Z,3.60
2018-12-30T04:55:35.301Z,3.63
2018-12-30T04:58:04.739Z,3.60
2018-12-30T05:00:34.211Z,3.27
2018-12-30T05:03:03.780Z,3.20
2018-12-30T05:05:33.166Z,3.57
2018-12-30T05:08:02.634Z,3.80
2018-12-30T05:10:32.287Z,3.23
2018-12-30T05:13:03.468Z,2.93
2018-12-30T05:15:32.883Z,3.40
2018-12-30T05:18:02.418Z,3.60
2018-12-30T05:20:31.928Z,4.67
2018-12-30T05:23:01.479Z,3.97
2018-12-30T05:25:30.874Z,3.60
2018-12-30T05:28:00.339Z,3.33
2018-12-30T05:30:29.743Z,4.33
2018-12-30T05:32:59.206Z,3.90
2018-12-30T05:35:28.596Z,3.73
2018-12-30T05:37:58.063Z,4.07
2018-12-30T05:40:27.588Z,3.37
2018-12-30T05:42:57.051Z,3.33
2018-12-30T05:45:26.476Z,3.67
2018-12-30T05:47:58.315Z,3.27
2018-12-30T05:50:26.999Z,2.73
2018-12-30T05:52:57.557Z,3.60
2018-12-30T05:55:27.087Z,2.60
2018-12-30T05:57:56.537Z,2.13
2018-12-30T06:00:26.265Z,1.80
2018-12-30T06:02:55.834Z,2.23
2018-12-30T06:05:25.203Z,2.70
2018-12-30T06:07:54.707Z,2.13
2018-12-30T06:10:24.204Z,1.90
2018-12-30T06:12:53.591Z,2.20
2018-12-30T06:15:22.945Z,2.37
2018-12-30T06:17:52.330Z,2.00
2018-12-30T06:20:21.767Z,2.40
2018-12-30T06:22:51.209Z,2.47
2018-12-30T06:25:20.767Z,2.40
2018-12-30T06:27:50.134Z,2.60
2018-12-30T06:30:19.527Z,3.43
2018-12-30T06:32:50.212Z,2.67
2018-12-30T06:35:19.887Z,2.80
2018-12-30T06:37:49.542Z,2.83
2018-12-30T06:40:19.003Z,3.67
2018-12-30T06:42:48.463Z,3.10
2018-12-30T06:45:17.859Z,3.50
2018-12-30T06:47:47.362Z,2.73
2018-12-30T06:50:17.333Z,3.53
2018-12-30T06:52:46.829Z,3.13
2018-12-30T06:55:16.390Z,3.00
2018-12-30T06:57:45.786Z,2.73
2018-12-30T07:00:15.488Z,2.70
2018-12-30T07:02:44.960Z,3.03
2018-12-30T07:05:14.481Z,3.20
2018-12-30T07:07:43.955Z,3.60
2018-12-30T07:10:13.344Z,2.83
2018-12-30T07:12:42.799Z,2.80
2018-12-30T07:15:12.185Z,2.30
2018-12-30T07:17:41.696Z,2.20
2018-12-30T07:20:11.315Z,2.40
2018-12-30T07:22:40.909Z,1.90
2018-12-30T07:25:10.483Z,2.40
2018-12-30T07:27:42.247Z,2.60
2018-12-30T07:30:11.655Z,3.17
2018-12-30T07:32:41.199Z,1.63
2018-12-30T07:35:10.721Z,2.20
2018-12-30T07:37:40.110Z,2.10
2018-12-30T07:40:09.651Z,2.63
2018-12-30T07:42:39.309Z,2.03
2018-12-30T07:45:08.895Z,2.90
2018-12-30T07:47:38.378Z,2.30
2018-12-30T07:50:08.361Z,2.70
2018-12-30T07:52:37.750Z,2.70
2018-12-30T07:55:07.431Z,3.20
2018-12-30T07:57:37.258Z,3.23
2018-12-30T08:00:08.587Z,2.73
2018-12-30T08:02:37.977Z,2.73
2018-12-30T08:05:09.008Z,2.80
2018-12-30T08:07:38.394Z,3.10
2018-12-30T08:10:08.090Z,2.90
2018-12-30T08:12:37.592Z,2.87
2018-12-30T08:15:07.457Z,2.20
2018-12-30T08:17:36.907Z,2.83
2018-12-30T08:20:07.605Z,3.40
2018-12-30T08:22:37.242Z,2.97
2018-12-30T08:25:06.696Z,2.87
2018-12-30T08:27:36.083Z,2.67
2018-12-30T08:30:06.515Z,3.40
2018-12-30T08:32:35.891Z,3.43
2018-12-30T08:35:05.356Z,2.77
2018-12-30T08:37:34.863Z,2.70
2018-12-30T08:40:05.345Z,3.70
2018-12-30T08:42:34.804Z,2.80
2018-12-30T08:45:04.442Z,2.80
2018-12-30T08:47:33.835Z,2.50
2018-12-30T08:50:03.729Z,2.40
2018-12-30T08:52:33.510Z,2.43
2018-12-30T08:55:02.887Z,2.67
2018-12-30T08:57:32.276Z,2.83
2018-12-30T09:00:01.878Z,2.80
2018-12-30T09:02:31.804Z,2.80
2018-12-30T09:05:01.155Z,2.90
2018-12-30T09:07:30.603Z,3.20
2018-12-30T09:10:00.163Z,3.03
2018-12-30T09:12:29.672Z,3.70
2018-12-30T09:14:59.176Z,2.73
2018-12-30T09:17:28.755Z,2.47
2018-12-30T09:19:58.290Z,3.40
2018-12-30T09:22:27.687Z,2.93
2018-12-30T09:24:57.079Z,2.90
2018-12-30T09:27:26.604Z,3.00
2018-12-30T09:29:56.415Z,3.40
2018-12-30T09:32:25.773Z,3.20
2018-12-30T09:34:55.355Z,2.77
2018-12-30T09:37:24.766Z,3.00
2018-12-30T09:39:54.230Z,2.77
2018-12-30T09:42:23.838Z,3.00
2018-12-30T09:44:53.314Z,3.07
2018-12-30T09:47:22.750Z,3.17
2018-12-30T09:49:52.300Z,3.63
2018-12-30T09:52:21.680Z,3.10
2018-12-30T09:54:51.105Z,2.97
2018-12-30T09:57:20.563Z,3.03
2018-12-30T09:59:50.015Z,2.53
2018-12-30T10:02:19.480Z,2.57
2018-12-30T10:04:49.080Z,2.70
2018-12-30T10:07:18.583Z,2.70
2018-12-30T10:09:47.989Z,2.73
2018-12-30T10:12:17.432Z,2.80
2018-12-30T10:14:47.085Z,3.07
2018-12-30T10:17:16.634Z,2.50
2018-12-30T10:19:46.283Z,2.80
2018-12-30T10:22:15.691Z,2.50
2018-12-30T10:24:46.758Z,2.87
2018-12-30T10:27:16.331Z,2.70
2018-12-30T10:29:45.730Z,2.40
2018-12-30T10:32:15.364Z,2.40
2018-12-30T10:34:44.890Z,3.07
2018-12-30T10:37:14.289Z,3.13
2018-12-30T10:39:44.334Z,2.33
2018-12-30T10:42:14.086Z,3.37
2018-12-30T10:44:47.083Z,3.13
2018-12-30T10:47:16.467Z,3.10
2018-12-30T10:49:45.843Z,2.43
2018-12-30T10:52:17.693Z,2.83
2018-12-30T10:54:47.683Z,2.50
2018-12-30T10:57:17.053Z,2.90
2018-12-30T10:59:46.424Z,2.70
2018-12-30T11:02:15.891Z,2.70
2018-12-30T11:04:46.898Z,2.70
2018-12-30T11:07:16.295Z,2.57
2018-12-30T11:09:45.663Z,2.67
2018-12-30T11:12:15.322Z,2.37
2018-12-30T11:14:44.786Z,2.83
2018-12-30T11:17:15.976Z,3.07
2018-12-30T11:19:45.472Z,2.77
2018-12-30T11:22:14.946Z,2.13
2018-12-30T11:24:44.305Z,2.10
2018-12-30T11:27:16.505Z,2.67
2018-12-30T11:29:45.931Z,2.10
2018-12-30T11:32:16.719Z,2.33
2018-12-30T11:34:46.342Z,1.87
2018-12-30T11:37:16.079Z,2.03
2018-12-30T11:39:45.440Z,2.10
2018-12-30T11:42:14.985Z,1.80
2018-12-30T11:44:44.331Z,2.10
2018-12-30T11:47:13.849Z,2.43
2018-12-30T11:49:43.777Z,2.30
2018-12-30T11:52:13.545Z,2.37
2018-12-30T11:54:42.979Z,1.93
2018-12-30T11:57:12.375Z,2.57
2018-12-30T11:59:41.717Z,2.37
2018-12-30T12:02:11.112Z,2.20
2018-12-30T12:04:40.454Z,1.87
2018-12-30T12:07:09.855Z,2.13
2018-12-30T12:09:39.332Z,2.10
2018-12-30T12:12:08.786Z,2.17
2018-12-30T12:14:39.718Z,1.90
2018-12-30T12:17:09.171Z,1.73
2018-12-30T12:19:38.596Z,2.03
2018-12-30T12:22:08.208Z,1.97
2018-12-30T12:24:37.729Z,1.80
2018-12-30T12:27:08.731Z,2.33
2018-12-30T12:29:38.196Z,1.87
2018-12-30T12:32:07.592Z,1.80
2018-12-30T12:34:37.039Z,1.77
2018-12-30T12:37:06.541Z,1.33
2018-12-30T12:39:36.019Z,1.73
2018-12-30T12:42:05.404Z,2.53
2018-12-30T12:44:34.809Z,1.77
2018-12-30T12:47:06.064Z,2.17
2018-12-30T12:49:35.494Z,2.13
2018-12-30T12:52:04.890Z,1.63
2018-12-30T12:54:35.316Z,1.90
2018-12-30T12:57:04.938Z,2.20
2018-12-30T12:59:36.004Z,1.83
2018-12-30T13:02:05.385Z,2.10
2018-12-30T13:04:34.999Z,1.53
2018-12-30T13:07:04.463Z,2.00
2018-12-30T13:09:34.017Z,1.70
2018-12-30T13:12:03.512Z,2.13
2018-12-30T13:14:32.958Z,1.80
2018-12-30T13:17:03.464Z,2.17
2018-12-30T13:19:32.935Z,1.47
2018-12-30T13:22:02.423Z,1.73
2018-12-30T13:24:31.860Z,1.90
2018-12-30T13:27:02.877Z,2.30
2018-12-30T13:29:32.443Z,1.73
2018-12-30T13:32:05.246Z,1.50
2018-12-30T13:34:35.359Z,1.80
2018-12-30T13:37:04.812Z,1.70
2018-12-30T13:39:34.272Z,1.83
2018-12-30T13:42:03.820Z,2.03
2018-12-30T13:44:33.315Z,1.90
2018-12-30T13:47:02.780Z,1.90
2018-12-30T13:49:32.243Z,1.70
2018-12-30T13:52:01.647Z,1.50
2018-12-30T13:54:31.083Z,1.57
2018-12-30T13:57:00.463Z,1.80
2018-12-30T13:59:30.175Z,1.80
2018-12-30T14:02:00.545Z,1.63
2018-12-30T14:04:29.997Z,1.80
2018-12-30T14:06:59.585Z,1.87
2018-12-30T14:09:28.974Z,1.60
2018-12-30T14:11:58.510Z,1.87
2018-12-30T14:14:27.909Z,1.63
2018-12-30T14:16:58.077Z,1.90
2018-12-30T14:19:27.718Z,1.83
2018-12-30T14:21:57.177Z,2.00
2018-12-30T14:24:26.580Z,1.90
2018-12-30T14:26:59.768Z,1.83
2018-12-30T14:29:27.109Z,1.60
2018-12-30T14:31:58.110Z,9.90
2018-12-30T14:34:27.568Z,2.00
2018-12-30T14:36:57.036Z,2.20
2018-12-30T14:39:26.463Z,2.00
2018-12-30T14:41:55.848Z,1.87
2018-12-30T14:44:25.430Z,2.07
2018-12-30T14:46:54.947Z,2.07
2018-12-30T14:49:24.295Z,1.50
2018-12-30T14:51:55.299Z,1.90
2018-12-30T14:54:24.721Z,1.80
2018-12-30T14:56:54.122Z,2.07
2018-12-30T14:59:23.550Z,1.83
2018-12-30T15:01:53.164Z,2.20
2018-12-30T15:04:22.585Z,1.97
2018-12-30T15:06:51.983Z,1.87
2018-12-30T15:09:21.488Z,1.70
2018-12-30T15:11:50.871Z,1.80
2018-12-30T15:14:20.289Z,1.80
2018-12-30T15:16:49.877Z,2.23
2018-12-30T15:19:20.767Z,2.13
2018-12-30T15:21:50.261Z,2.00
2018-12-30T15:24:19.808Z,1.70
2018-12-30T15:26:49.284Z,2.40
2018-12-30T15:29:18.715Z,2.30
2018-12-30T15:31:48.648Z,2.20
2018-12-30T15:34:18.119Z,2.33
2018-12-30T15:36:48.282Z,2.63
2018-12-30T15:39:17.700Z,2.40
2018-12-30T15:41:47.175Z,2.03
2018-12-30T15:44:18.451Z,1.83
2018-12-30T15:46:47.915Z,1.73
2018-12-30T15:49:17.315Z,1.97
2018-12-30T15:51:46.704Z,1.70
2018-12-30T15:54:16.292Z,1.80
2018-12-30T15:56:45.677Z,2.00
2018-12-30T15:59:15.323Z,1.80
2018-12-30T16:01:44.833Z,1.97
2018-12-30T16:04:14.216Z,2.63
2018-12-30T16:06:43.774Z,2.30
2018-12-30T16:09:13.443Z,2.67
2018-12-30T16:11:42.882Z,2.30
2018-12-30T16:14:12.345Z,3.83
2018-12-30T16:16:41.808Z,3.10
2018-12-30T16:19:11.749Z,2.30
2018-12-30T16:21:41.194Z,2.57
2018-12-30T16:24:10.667Z,2.77
2018-12-30T16:26:40.793Z,3.17
2018-12-30T16:29:10.260Z,3.13
2018-12-30T16:31:39.670Z,2.70
2018-12-30T16:34:09.123Z,3.20
2018-12-30T16:36:38.507Z,3.20
2018-12-30T16:39:07.889Z,3.30
2018-12-30T16:41:37.362Z,3.87
2018-12-30T16:44:06.713Z,3.50
2018-12-30T16:46:36.142Z,2.93
2018-12-30T16:49:05.608Z,3.70
2018-12-30T16:51:35.108Z,3.27
2018-12-30T16:54:04.662Z,3.53
2018-12-30T16:56:34.056Z,4.50
2018-12-30T16:59:03.578Z,9.10
2018-12-30T17:01:33.103Z,4.23
2018-12-30T17:04:02.649Z,4.37
2018-12-30T17:06:34.119Z,4.17
2018-12-30T17:09:04.812Z,4.73
2018-12-30T17:11:34.258Z,4.70
2018-12-30T17:14:03.827Z,4.77
2018-12-30T17:16:33.211Z,5.07
2018-12-30T17:19:21.933Z,5.27
2018-12-30T17:21:51.541Z,4.53
2018-12-30T17:24:21.142Z,5.00
2018-12-30T17:26:50.536Z,4.80
2018-12-30T17:29:20.009Z,5.57
2018-12-30T17:31:49.586Z,6.17
2018-12-30T17:34:19.045Z,5.30
2018-12-30T17:36:48.521Z,6.10
2018-12-30T17:39:18.151Z,5.70
2018-12-30T17:41:49.260Z,5.37
2018-12-30T17:44:18.796Z,6.37
2018-12-30T17:46:48.280Z,7.23
2018-12-30T17:49:17.727Z,6.63
2018-12-30T17:51:47.243Z,6.23
2018-12-30T17:54:16.638Z,6.60
2018-12-30T17:56:46.223Z,6.47
2018-12-30T17:59:15.609Z,7.37
2018-12-30T18:01:45.103Z,7.33
2018-12-30T18:04:14.636Z,7.07
2018-12-30T18:06:44.060Z,7.17
2018-12-30T18:09:13.447Z,7.70
2018-12-30T18:11:42.847Z,7.80
2018-12-30T18:14:12.227Z,8.63
2018-12-30T18:16:41.607Z,8.97
2018-12-30T18:19:11.076Z,9.97
2018-12-30T18:21:40.604Z,10.17
2018-12-30T18:24:09.990Z,10.40
2018-12-30T18:26:39.385Z,11.83
2018-12-30T18:29:08.974Z,11.23
2018-12-30T18:31:40.283Z,11.53
2018-12-30T18:34:09.746Z,11.53
2018-12-30T18:36:39.157Z,11.87
2018-12-30T18:39:08.814Z,13.27
2018-12-30T18:41:38.283Z,12.43
2018-12-30T18:44:07.693Z,13.90
2018-12-30T18:46:37.331Z,13.70
2018-12-30T18:49:06.808Z,13.10
2018-12-30T18:51:37.748Z,13.17
2018-12-30T18:54:07.380Z,14.00
2018-12-30T18:56:36.831Z,14.30
2018-12-30T18:59:06.624Z,14.17
2018-12-30T19:01:36.098Z,14.13
2018-12-30T19:04:05.590Z,13.37
2018-12-30T19:06:36.616Z,15.07
2018-12-30T19:09:07.193Z,15.03
2018-12-30T19:11:36.704Z,15.20
2018-12-30T19:14:06.243Z,14.90
2018-12-30T19:16:35.908Z,15.07
2018-12-30T19:19:06.805Z,15.80
2018-12-30T19:21:36.211Z,15.40
2018-12-30T19:24:05.907Z,16.77
2018-12-30T19:26:36.952Z,15.70
2018-12-30T19:29:06.309Z,16.83
2018-12-30T19:31:35.711Z,15.90
2018-12-30T19:34:05.066Z,18.47
2018-12-30T19:36:34.454Z,18.33
2018-12-30T19:39:06.412Z,17.30
2018-12-30T19:41:35.984Z,17.17
2018-12-30T19:44:05.412Z,16.13
2018-12-30T19:46:34.964Z,15.40
2018-12-30T19:49:04.487Z,16.90
2018-12-30T19:51:34.102Z,15.63
2018-12-30T19:54:03.778Z,14.20
2018-12-30T19:56:33.417Z,14.93
2018-12-30T19:59:03.088Z,15.13
2018-12-30T20:01:32.674Z,15.13
2018-12-30T20:04:02.373Z,14.10
2018-12-30T20:06:31.919Z,15.87
2018-12-30T20:09:01.441Z,16.20
2018-12-30T20:11:31.034Z,16.37
2018-12-30T20:14:00.746Z,16.57
2018-12-30T20:16:30.420Z,15.57
2018-12-30T20:18:59.930Z,15.07
2018-12-30T20:21:29.544Z,15.63
2018-12-30T20:23:59.105Z,14.13
2018-12-30T20:26:30.003Z,14.93
2018-12-30T20:29:00.264Z,14.90
2018-12-30T20:31:29.803Z,15.47
2018-12-30T20:33:59.381Z,15.63
2018-12-30T20:36:28.987Z,14.20
2018-12-30T20:38:58.619Z,15.27
2018-12-30T20:41:28.276Z,13.37
2018-12-30T20:43:57.895Z,13.30
2018-12-30T20:46:27.451Z,14.73
2018-12-30T20:48:56.818Z,14.30
2018-12-30T20:51:26.340Z,13.87
2018-12-30T20:53:55.702Z,15.50
2018-12-30T20:56:25.254Z,14.63
2018-12-30T20:58:54.976Z,14.53
2018-12-30T21:01:24.372Z,15.07
2018-12-30T21:03:53.739Z,15.60
2018-12-30T21:06:23.215Z,14.87
2018-12-30T21:08:52.592Z,15.63
2018-12-30T21:11:22.051Z,15.70
2018-12-30T21:13:53.048Z,14.70
2018-12-30T21:16:22.537Z,14.60
2018-12-30T21:18:51.909Z,14.73
2018-12-30T21:21:21.308Z,14.20
2018-12-30T21:23:50.840Z,15.83
2018-12-30T21:26:20.406Z,16.37
2018-12-30T21:28:49.759Z,16.60
2018-12-30T21:31:19.431Z,15.33
2018-12-30T21:33:49.674Z,15.70
2018-12-30T21:36:19.131Z,16.80
2018-12-30T21:38:48.498Z,16.13
2018-12-30T21:41:18.067Z,17.83
2018-12-30T21:43:47.442Z,17.63
2018-12-30T21:46:16.911Z,17.47
2018-12-30T21:48:46.265Z,16.87
2018-12-30T21:51:15.888Z,17.23
2018-12-30T21:53:45.322Z,16.67
2018-12-30T21:56:14.894Z,16.80
2018-12-30T21:58:44.339Z,15.50
2018-12-30T22:01:13.937Z,14.37
2018-12-30T22:03:43.452Z,14.13
2018-12-30T22:06:12.911Z,15.13
2018-12-30T22:08:42.293Z,14.63
2018-12-30T22:11:11.780Z,14.27
2018-12-30T22:13:41.210Z,13.50
2018-12-30T22:16:10.688Z,12.97
2018-12-30T22:18:40.104Z,13.83
2018-12-30T22:21:09.675Z,12.00
2018-12-30T22:23:39.235Z,13.03
2018-12-30T22:26:08.644Z,12.47
2018-12-30T22:28:38.365Z,13.77
2018-12-30T22:31:07.750Z,13.57
2018-12-30T22:33:37.231Z,13.07
2018-12-30T22:36:06.624Z,13.83
2018-12-30T22:38:37.539Z,13.47
2018-12-30T22:41:06.971Z,13.70
2018-12-30T22:43:36.431Z,14.30
2018-12-30T22:46:05.955Z,14.13
2018-12-30T22:48:35.345Z,14.73
2018-12-30T22:51:04.835Z,14.87
2018-12-30T22:53:34.231Z,14.97
2018-12-30T22:56:03.726Z,15.27
2018-12-30T22:58:33.336Z,13.73
2018-12-30T23:01:04.513Z,13.67
2018-12-30T23:03:33.980Z,14.77
2018-12-30T23:06:03.439Z,14.23
2018-12-30T23:08:32.820Z,14.33
2018-12-30T23:11:02.456Z,13.53
2018-12-30T23:13:33.628Z,13.33
2018-12-30T23:16:03.087Z,13.17
2018-12-30T23:18:34.128Z,13.97
2018-12-30T23:21:03.597Z,13.00
2018-12-30T23:23:35.913Z,12.67
2018-12-30T23:26:05.412Z,12.43
2018-12-30T23:28:34.826Z,12.77
2018-12-30T23:31:04.536Z,12.47
2018-12-30T23:33:53.339Z,12.53
2018-12-30T23:36:25.905Z,12.50
2018-12-30T23:38:55.501Z,11.27
2018-12-30T23:41:25.073Z,10.83
2018-12-30T23:43:54.960Z,10.77
2018-12-30T23:46:24.466Z,9.93
2018-12-30T23:48:53.943Z,9.80
2018-12-30T23:51:23.405Z,9.80
2018-12-30T23:53:52.923Z,11.13
2018-12-30T23:56:22.281Z,10.00
2018-12-30T23:58:51.757Z,10.20
